sensor_id;sensor_type;location;lat;lon;timestamp;P1;durP1;ratioP1;P2;durP2;ratioP2
15595;SDS011;7898;48.658;9.068;2022-11-12T00:01:04;21.97;;;14.00;;
15595;SDS011;7898;48.658;9.068;2022-11-12T00:03:31;23.03;;;14.07;;
15595;SDS011;7898;48.658;9.068;2022-11-12T00:05:58;23.87;;;15.53;;
15595;SDS011;7898;48.658;9.068;2022-11-12T00:08:25;23.87;;;14.40;;
15595;SDS011;7898;48.658;9.068;2022-11-12T00:10:53;21.47;;;13.00;;
15595;SDS011;7898;48.658;9.068;2022-11-12T00:13:20;23.63;;;14.23;;
15595;SDS011;7898;48.658;9.068;2022-11-12T00:15:47;26.00;;;14.50;;
15595;SDS011;7898;48.658;9.068;2022-11-12T00:18:14;21.57;;;13.63;;
15595;SDS011;7898;48.658;9.068;2022-11-12T00:20:41;19.80;;;13.20;;
15595;SDS011;7898;48.658;9.068;2022-11-12T00:23:07;21.67;;;15.03;;
15595;SDS011;7898;48.658;9.068;2022-11-12T00:25:34;24.03;;;14.33;;
15595;SDS011;7898;48.658;9.068;2022-11-12T00:28:04;26.03;;;14.27;;
15595;SDS011;7898;48.658;9.068;2022-11-12T00:30:31;27.53;;;13.07;;
15595;SDS011;7898;48.658;9.068;2022-11-12T00:33:00;19.80;;;12.67;;
15595;SDS011;7898;48.658;9.068;2022-11-12T00:35:28;19.13;;;11.10;;
15595;SDS011;7898;48.658;9.068;2022-11-12T00:37:55;92.63;;;12.97;;
15595;SDS011;7898;48.658;9.068;2022-11-12T00:40:23;52.93;;;13.97;;
15595;SDS011;7898;48.658;9.068;2022-11-12T00:42:50;21.53;;;12.90;;
15595;SDS011;7898;48.658;9.068;2022-11-12T00:45:19;42.67;;;10.17;;
15595;SDS011;7898;48.658;9.068;2022-11-12T00:47:46;22.20;;;9.13;;
15595;SDS011;7898;48.658;9.068;2022-11-12T00:50:13;35.60;;;9.87;;
15595;SDS011;7898;48.658;9.068;2022-11-12T00:52:41;22.53;;;9.10;;
15595;SDS011;7898;48.658;9.068;2022-11-12T00:55:08;29.40;;;11.03;;
15595;SDS011;7898;48.658;9.068;2022-11-12T00:57:35;22.83;;;7.60;;
15595;SDS011;7898;48.658;9.068;2022-11-12T01:00:02;31.63;;;9.60;;
15595;SDS011;7898;48.658;9.068;2022-11-12T01:02:31;23.80;;;11.70;;
15595;SDS011;7898;48.658;9.068;2022-11-12T01:04:58;18.17;;;9.90;;
15595;SDS011;7898;48.658;9.068;2022-11-12T01:07:26;15.87;;;9.40;;
15595;SDS011;7898;48.658;9.068;2022-11-12T01:09:53;28.20;;;9.87;;
15595;SDS011;7898;48.658;9.068;2022-11-12T01:12:19;27.67;;;10.97;;
15595;SDS011;7898;48.658;9.068;2022-11-12T01:14:46;15.37;;;10.87;;
15595;SDS011;7898;48.658;9.068;2022-11-12T01:17:13;17.33;;;11.17;;
15595;SDS011;7898;48.658;9.068;2022-11-12T01:19:41;15.17;;;10.80;;
15595;SDS011;7898;48.658;9.068;2022-11-12T01:22:09;23.30;;;11.00;;
15595;SDS011;7898;48.658;9.068;2022-11-12T01:24:36;21.50;;;10.87;;
15595;SDS011;7898;48.658;9.068;2022-11-12T01:27:03;29.63;;;11.40;;
15595;SDS011;7898;48.658;9.068;2022-11-12T01:29:30;14.67;;;9.23;;
15595;SDS011;7898;48.658;9.068;2022-11-12T01:31:58;17.80;;;9.53;;
15595;SDS011;7898;48.658;9.068;2022-11-12T01:34:25;16.60;;;9.33;;
15595;SDS011;7898;48.658;9.068;2022-11-12T01:36:53;19.90;;;9.17;;
15595;SDS011;7898;48.658;9.068;2022-11-12T01:39:20;17.50;;;9.13;;
15595;SDS011;7898;48.658;9.068;2022-11-12T01:41:47;17.40;;;10.30;;
15595;SDS011;7898;48.658;9.068;2022-11-12T01:44:15;17.80;;;9.60;;
15595;SDS011;7898;48.658;9.068;2022-11-12T01:46:56;13.60;;;9.20;;
15595;SDS011;7898;48.658;9.068;2022-11-12T01:49:28;24.83;;;10.13;;
15595;SDS011;7898;48.658;9.068;2022-11-12T01:52:01;14.20;;;8.60;;
15595;SDS011;7898;48.658;9.068;2022-11-12T01:54:35;11.90;;;8.43;;
15595;SDS011;7898;48.658;9.068;2022-11-12T01:57:03;14.70;;;8.03;;
15595;SDS011;7898;48.658;9.068;2022-11-12T01:59:32;17.73;;;9.30;;
15595;SDS011;7898;48.658;9.068;2022-11-12T02:02:03;12.03;;;8.63;;
15595;SDS011;7898;48.658;9.068;2022-11-12T02:04:30;14.63;;;8.27;;
15595;SDS011;7898;48.658;9.068;2022-11-12T02:07:00;15.33;;;8.70;;
15595;SDS011;7898;48.658;9.068;2022-11-12T02:09:28;17.40;;;8.37;;
15595;SDS011;7898;48.658;9.068;2022-11-12T02:11:56;20.83;;;8.53;;
15595;SDS011;7898;48.658;9.068;2022-11-12T02:14:25;18.30;;;8.90;;
15595;SDS011;7898;48.658;9.068;2022-11-12T02:16:52;13.03;;;8.90;;
15595;SDS011;7898;48.658;9.068;2022-11-12T02:19:19;20.27;;;9.10;;
15595;SDS011;7898;48.658;9.068;2022-11-12T02:21:47;15.30;;;8.53;;
15595;SDS011;7898;48.658;9.068;2022-11-12T02:24:30;22.40;;;9.03;;
15595;SDS011;7898;48.658;9.068;2022-11-12T02:27:02;13.43;;;8.37;;
15595;SDS011;7898;48.658;9.068;2022-11-12T02:29:30;14.17;;;8.53;;
15595;SDS011;7898;48.658;9.068;2022-11-12T02:31:58;26.30;;;8.87;;
15595;SDS011;7898;48.658;9.068;2022-11-12T02:34:25;14.60;;;8.97;;
15595;SDS011;7898;48.658;9.068;2022-11-12T02:36:53;14.90;;;8.67;;
15595;SDS011;7898;48.658;9.068;2022-11-12T02:39:20;12.53;;;9.00;;
15595;SDS011;7898;48.658;9.068;2022-11-12T02:41:49;16.50;;;8.83;;
15595;SDS011;7898;48.658;9.068;2022-11-12T02:44:17;23.97;;;10.17;;
15595;SDS011;7898;48.658;9.068;2022-11-12T02:46:44;18.90;;;8.83;;
15595;SDS011;7898;48.658;9.068;2022-11-12T02:49:11;13.03;;;8.67;;
15595;SDS011;7898;48.658;9.068;2022-11-12T02:51:38;24.30;;;9.20;;
15595;SDS011;7898;48.658;9.068;2022-11-12T02:54:06;12.23;;;8.10;;
15595;SDS011;7898;48.658;9.068;2022-11-12T02:56:33;18.23;;;9.17;;
15595;SDS011;7898;48.658;9.068;2022-11-12T02:59:00;20.33;;;9.50;;
15595;SDS011;7898;48.658;9.068;2022-11-12T03:01:27;20.10;;;8.20;;
15595;SDS011;7898;48.658;9.068;2022-11-12T03:03:54;20.67;;;8.33;;
15595;SDS011;7898;48.658;9.068;2022-11-12T03:06:21;11.20;;;7.50;;
15595;SDS011;7898;48.658;9.068;2022-11-12T03:08:48;21.73;;;8.03;;
15595;SDS011;7898;48.658;9.068;2022-11-12T03:11:16;19.17;;;7.50;;
15595;SDS011;7898;48.658;9.068;2022-11-12T03:13:43;12.03;;;7.30;;
15595;SDS011;7898;48.658;9.068;2022-11-12T03:16:10;27.33;;;8.80;;
15595;SDS011;7898;48.658;9.068;2022-11-12T03:18:37;30.47;;;8.57;;
15595;SDS011;7898;48.658;9.068;2022-11-12T03:21:04;23.40;;;7.97;;
15595;SDS011;7898;48.658;9.068;2022-11-12T03:23:31;22.57;;;8.23;;
15595;SDS011;7898;48.658;9.068;2022-11-12T03:26:00;26.73;;;9.33;;
15595;SDS011;7898;48.658;9.068;2022-11-12T03:28:29;17.00;;;7.73;;
15595;SDS011;7898;48.658;9.068;2022-11-12T03:30:56;11.63;;;8.33;;
15595;SDS011;7898;48.658;9.068;2022-11-12T03:33:26;18.60;;;7.13;;
15595;SDS011;7898;48.658;9.068;2022-11-12T03:35:53;27.67;;;8.03;;
15595;SDS011;7898;48.658;9.068;2022-11-12T03:38:20;23.10;;;7.77;;
15595;SDS011;7898;48.658;9.068;2022-11-12T03:40:47;15.07;;;6.60;;
15595;SDS011;7898;48.658;9.068;2022-11-12T03:43:14;26.00;;;7.80;;
15595;SDS011;7898;48.658;9.068;2022-11-12T03:45:43;17.03;;;7.33;;
15595;SDS011;7898;48.658;9.068;2022-11-12T03:48:09;22.93;;;7.70;;
15595;SDS011;7898;48.658;9.068;2022-11-12T03:50:36;29.57;;;9.40;;
15595;SDS011;7898;48.658;9.068;2022-11-12T03:53:03;21.33;;;9.13;;
15595;SDS011;7898;48.658;9.068;2022-11-12T03:55:30;16.23;;;8.90;;
15595;SDS011;7898;48.658;9.068;2022-11-12T03:57:57;12.07;;;7.87;;
15595;SDS011;7898;48.658;9.068;2022-11-12T04:00:25;12.90;;;8.07;;
15595;SDS011;7898;48.658;9.068;2022-11-12T04:02:54;12.60;;;8.33;;
15595;SDS011;7898;48.658;9.068;2022-11-12T04:05:21;15.73;;;8.10;;
15595;SDS011;7898;48.658;9.068;2022-11-12T04:08:08;12.33;;;7.30;;
15595;SDS011;7898;48.658;9.068;2022-11-12T04:10:56;52.00;;;9.23;;
15595;SDS011;7898;48.658;9.068;2022-11-12T04:13:23;21.47;;;7.10;;
15595;SDS011;7898;48.658;9.068;2022-11-12T04:15:53;38.53;;;9.13;;
15595;SDS011;7898;48.658;9.068;2022-11-12T04:18:43;18.37;;;7.67;;
15595;SDS011;7898;48.658;9.068;2022-11-12T04:21:29;42.13;;;8.27;;
15595;SDS011;7898;48.658;9.068;2022-11-12T04:24:16;42.93;;;7.67;;
15595;SDS011;7898;48.658;9.068;2022-11-12T04:27:01;19.47;;;6.77;;
15595;SDS011;7898;48.658;9.068;2022-11-12T04:29:28;12.20;;;7.00;;
15595;SDS011;7898;48.658;9.068;2022-11-12T04:32:13;9.40;;;6.77;;
15595;SDS011;7898;48.658;9.068;2022-11-12T04:34:41;16.93;;;7.60;;
15595;SDS011;7898;48.658;9.068;2022-11-12T04:37:08;16.40;;;7.40;;
15595;SDS011;7898;48.658;9.068;2022-11-12T04:39:35;18.63;;;8.20;;
15595;SDS011;7898;48.658;9.068;2022-11-12T04:42:02;16.53;;;7.23;;
15595;SDS011;7898;48.658;9.068;2022-11-12T04:44:47;17.27;;;7.43;;
15595;SDS011;7898;48.658;9.068;2022-11-12T04:47:30;15.50;;;6.83;;
15595;SDS011;7898;48.658;9.068;2022-11-12T04:50:00;19.77;;;7.97;;
15595;SDS011;7898;48.658;9.068;2022-11-12T04:52:29;14.93;;;7.23;;
15595;SDS011;7898;48.658;9.068;2022-11-12T04:54:57;10.63;;;7.07;;
15595;SDS011;7898;48.658;9.068;2022-11-12T04:57:24;14.03;;;7.33;;
15595;SDS011;7898;48.658;9.068;2022-11-12T04:59:51;15.17;;;8.10;;
15595;SDS011;7898;48.658;9.068;2022-11-12T05:02:18;12.03;;;7.43;;
15595;SDS011;7898;48.658;9.068;2022-11-12T05:04:45;9.00;;;6.83;;
15595;SDS011;7898;48.658;9.068;2022-11-12T05:07:15;11.57;;;7.43;;
15595;SDS011;7898;48.658;9.068;2022-11-12T05:09:42;13.23;;;7.07;;
15595;SDS011;7898;48.658;9.068;2022-11-12T05:12:09;9.70;;;7.27;;
15595;SDS011;7898;48.658;9.068;2022-11-12T05:14:36;13.37;;;6.83;;
15595;SDS011;7898;48.658;9.068;2022-11-12T05:17:03;10.13;;;6.80;;
15595;SDS011;7898;48.658;9.068;2022-11-12T05:19:32;11.13;;;6.47;;
15595;SDS011;7898;48.658;9.068;2022-11-12T05:22:00;8.90;;;6.60;;
15595;SDS011;7898;48.658;9.068;2022-11-12T05:24:34;12.10;;;6.47;;
15595;SDS011;7898;48.658;9.068;2022-11-12T05:27:03;11.50;;;6.83;;
15595;SDS011;7898;48.658;9.068;2022-11-12T05:29:31;11.53;;;7.00;;
15595;SDS011;7898;48.658;9.068;2022-11-12T05:31:58;10.47;;;6.50;;
15595;SDS011;7898;48.658;9.068;2022-11-12T05:34:25;8.37;;;6.40;;
15595;SDS011;7898;48.658;9.068;2022-11-12T05:36:52;27.23;;;7.90;;
15595;SDS011;7898;48.658;9.068;2022-11-12T05:39:19;12.33;;;7.17;;
15595;SDS011;7898;48.658;9.068;2022-11-12T05:41:47;12.63;;;7.13;;
15595;SDS011;7898;48.658;9.068;2022-11-12T05:44:14;17.23;;;7.40;;
15595;SDS011;7898;48.658;9.068;2022-11-12T05:46:41;7.93;;;6.03;;
15595;SDS011;7898;48.658;9.068;2022-11-12T05:49:08;9.60;;;6.27;;
15595;SDS011;7898;48.658;9.068;2022-11-12T05:51:35;10.73;;;6.90;;
15595;SDS011;7898;48.658;9.068;2022-11-12T05:54:03;8.33;;;6.03;;
15595;SDS011;7898;48.658;9.068;2022-11-12T05:56:30;8.47;;;5.97;;
15595;SDS011;7898;48.658;9.068;2022-11-12T05:58:59;10.70;;;7.37;;
15595;SDS011;7898;48.658;9.068;2022-11-12T06:01:26;9.40;;;6.57;;
15595;SDS011;7898;48.658;9.068;2022-11-12T06:03:53;15.70;;;6.50;;
15595;SDS011;7898;48.658;9.068;2022-11-12T06:06:23;8.97;;;6.57;;
15595;SDS011;7898;48.658;9.068;2022-11-12T06:08:50;7.67;;;6.10;;
15595;SDS011;7898;48.658;9.068;2022-11-12T06:11:17;15.27;;;6.60;;
15595;SDS011;7898;48.658;9.068;2022-11-12T06:13:43;115.03;;;15.90;;
15595;SDS011;7898;48.658;9.068;2022-11-12T06:16:12;70.93;;;9.37;;
15595;SDS011;7898;48.658;9.068;2022-11-12T06:18:39;45.67;;;8.37;;
15595;SDS011;7898;48.658;9.068;2022-11-12T06:21:08;26.20;;;7.43;;
15595;SDS011;7898;48.658;9.068;2022-11-12T06:23:46;14.57;;;6.90;;
15595;SDS011;7898;48.658;9.068;2022-11-12T06:26:17;26.87;;;7.10;;
15595;SDS011;7898;48.658;9.068;2022-11-12T06:28:45;21.53;;;6.67;;
15595;SDS011;7898;48.658;9.068;2022-11-12T06:31:14;22.33;;;7.37;;
15595;SDS011;7898;48.658;9.068;2022-11-12T06:33:41;8.90;;;5.43;;
15595;SDS011;7898;48.658;9.068;2022-11-12T06:36:09;12.93;;;6.10;;
15595;SDS011;7898;48.658;9.068;2022-11-12T06:38:38;11.00;;;5.90;;
15595;SDS011;7898;48.658;9.068;2022-11-12T06:41:07;16.00;;;6.57;;
15595;SDS011;7898;48.658;9.068;2022-11-12T06:43:35;10.93;;;5.93;;
15595;SDS011;7898;48.658;9.068;2022-11-12T06:46:04;17.23;;;6.10;;
15595;SDS011;7898;48.658;9.068;2022-11-12T06:48:34;8.83;;;5.07;;
15595;SDS011;7898;48.658;9.068;2022-11-12T06:51:07;10.17;;;5.47;;
15595;SDS011;7898;48.658;9.068;2022-11-12T06:53:35;14.43;;;7.30;;
15595;SDS011;7898;48.658;9.068;2022-11-12T06:56:03;17.73;;;7.37;;
15595;SDS011;7898;48.658;9.068;2022-11-12T06:58:31;14.93;;;7.70;;
15595;SDS011;7898;48.658;9.068;2022-11-12T07:01:03;17.63;;;9.40;;
15595;SDS011;7898;48.658;9.068;2022-11-12T07:03:31;21.47;;;8.83;;
15595;SDS011;7898;48.658;9.068;2022-11-12T07:06:03;10.90;;;7.47;;
15595;SDS011;7898;48.658;9.068;2022-11-12T07:08:32;8.97;;;6.60;;
15595;SDS011;7898;48.658;9.068;2022-11-12T07:10:59;10.73;;;7.23;;
15595;SDS011;7898;48.658;9.068;2022-11-12T07:13:28;9.80;;;6.87;;
15595;SDS011;7898;48.658;9.068;2022-11-12T07:15:55;7.37;;;5.80;;
15595;SDS011;7898;48.658;9.068;2022-11-12T07:18:23;7.43;;;5.47;;
15595;SDS011;7898;48.658;9.068;2022-11-12T07:20:50;10.83;;;7.20;;
15595;SDS011;7898;48.658;9.068;2022-11-12T07:23:18;10.73;;;6.30;;
15595;SDS011;7898;48.658;9.068;2022-11-12T07:25:45;7.73;;;6.27;;
15595;SDS011;7898;48.658;9.068;2022-11-12T07:28:12;10.80;;;7.30;;
15595;SDS011;7898;48.658;9.068;2022-11-12T07:30:39;8.67;;;5.77;;
15595;SDS011;7898;48.658;9.068;2022-11-12T07:33:05;8.83;;;6.90;;
15595;SDS011;7898;48.658;9.068;2022-11-12T07:35:38;9.00;;;6.60;;
15595;SDS011;7898;48.658;9.068;2022-11-12T07:38:04;10.33;;;7.80;;
15595;SDS011;7898;48.658;9.068;2022-11-12T07:40:33;12.93;;;9.10;;
15595;SDS011;7898;48.658;9.068;2022-11-12T07:43:00;14.47;;;9.33;;
15595;SDS011;7898;48.658;9.068;2022-11-12T07:45:26;13.73;;;9.37;;
15595;SDS011;7898;48.658;9.068;2022-11-12T07:47:53;13.00;;;8.13;;
15595;SDS011;7898;48.658;9.068;2022-11-12T07:50:23;9.80;;;8.10;;
15595;SDS011;7898;48.658;9.068;2022-11-12T07:52:50;18.13;;;14.20;;
15595;SDS011;7898;48.658;9.068;2022-11-12T07:55:19;12.83;;;9.80;;
15595;SDS011;7898;48.658;9.068;2022-11-12T07:57:49;10.83;;;9.10;;
15595;SDS011;7898;48.658;9.068;2022-11-12T08:00:17;8.67;;;6.40;;
15595;SDS011;7898;48.658;9.068;2022-11-12T08:02:44;6.60;;;5.60;;
15595;SDS011;7898;48.658;9.068;2022-11-12T08:05:11;8.67;;;6.07;;
15595;SDS011;7898;48.658;9.068;2022-11-12T08:07:38;12.47;;;7.30;;
15595;SDS011;7898;48.658;9.068;2022-11-12T08:10:06;7.00;;;5.27;;
15595;SDS011;7898;48.658;9.068;2022-11-12T08:12:33;7.17;;;5.23;;
15595;SDS011;7898;48.658;9.068;2022-11-12T08:15:02;6.87;;;5.00;;
15595;SDS011;7898;48.658;9.068;2022-11-12T08:17:29;10.00;;;4.97;;
15595;SDS011;7898;48.658;9.068;2022-11-12T08:19:56;4.97;;;4.47;;
15595;SDS011;7898;48.658;9.068;2022-11-12T08:22:23;5.33;;;4.83;;
15595;SDS011;7898;48.658;9.068;2022-11-12T08:24:50;5.23;;;4.70;;
15595;SDS011;7898;48.658;9.068;2022-11-12T08:27:17;7.20;;;5.57;;
15595;SDS011;7898;48.658;9.068;2022-11-12T08:29:44;6.13;;;5.53;;
15595;SDS011;7898;48.658;9.068;2022-11-12T08:32:13;6.43;;;5.70;;
15595;SDS011;7898;48.658;9.068;2022-11-12T08:34:40;6.13;;;5.53;;
15595;SDS011;7898;48.658;9.068;2022-11-12T08:37:07;5.70;;;4.87;;
15595;SDS011;7898;48.658;9.068;2022-11-12T08:39:34;6.28;;;5.68;;
15595;SDS011;7898;48.658;9.068;2022-11-12T08:42:01;6.03;;;5.40;;
15595;SDS011;7898;48.658;9.068;2022-11-12T08:44:28;5.88;;;5.35;;
15595;SDS011;7898;48.658;9.068;2022-11-12T08:46:55;5.18;;;4.68;;
15595;SDS011;7898;48.658;9.068;2022-11-12T08:49:24;5.32;;;4.45;;
15595;SDS011;7898;48.658;9.068;2022-11-12T08:51:53;5.00;;;4.25;;
15595;SDS011;7898;48.658;9.068;2022-11-12T08:54:21;4.70;;;4.20;;
15595;SDS011;7898;48.658;9.068;2022-11-12T08:56:48;5.17;;;4.23;;
15595;SDS011;7898;48.658;9.068;2022-11-12T08:59:16;4.82;;;4.32;;
15595;SDS011;7898;48.658;9.068;2022-11-12T09:01:43;6.55;;;4.13;;
15595;SDS011;7898;48.658;9.068;2022-11-12T09:04:09;5.73;;;4.07;;
15595;SDS011;7898;48.658;9.068;2022-11-12T09:06:38;5.70;;;4.10;;
15595;SDS011;7898;48.658;9.068;2022-11-12T09:09:05;4.77;;;4.33;;
15595;SDS011;7898;48.658;9.068;2022-11-12T09:11:32;5.23;;;4.50;;
15595;SDS011;7898;48.658;9.068;2022-11-12T09:13:59;4.40;;;4.00;;
15595;SDS011;7898;48.658;9.068;2022-11-12T09:16:25;4.18;;;3.78;;
15595;SDS011;7898;48.658;9.068;2022-11-12T09:18:52;4.28;;;3.88;;
15595;SDS011;7898;48.658;9.068;2022-11-12T09:21:19;3.75;;;3.35;;
15595;SDS011;7898;48.658;9.068;2022-11-12T09:23:50;3.85;;;3.55;;
15595;SDS011;7898;48.658;9.068;2022-11-12T09:26:17;4.60;;;3.67;;
15595;SDS011;7898;48.658;9.068;2022-11-12T09:28:44;3.83;;;3.47;;
15595;SDS011;7898;48.658;9.068;2022-11-12T09:31:11;4.15;;;3.75;;
15595;SDS011;7898;48.658;9.068;2022-11-12T09:33:37;4.00;;;3.70;;
15595;SDS011;7898;48.658;9.068;2022-11-12T09:36:05;5.45;;;3.40;;
15595;SDS011;7898;48.658;9.068;2022-11-12T09:38:32;3.60;;;3.30;;
15595;SDS011;7898;48.658;9.068;2022-11-12T09:43:47;3.40;;;3.10;;
15595;SDS011;7898;48.658;9.068;2022-11-12T09:46:27;3.83;;;3.40;;
15595;SDS011;7898;48.658;9.068;2022-11-12T09:49:01;4.53;;;3.17;;
15595;SDS011;7898;48.658;9.068;2022-11-12T09:51:32;4.50;;;3.35;;
15595;SDS011;7898;48.658;9.068;2022-11-12T09:54:03;3.63;;;3.05;;
15595;SDS011;7898;48.658;9.068;2022-11-12T09:56:39;3.08;;;2.78;;
15595;SDS011;7898;48.658;9.068;2022-11-12T09:59:08;5.20;;;3.15;;
15595;SDS011;7898;48.658;9.068;2022-11-12T10:01:38;3.13;;;2.83;;
15595;SDS011;7898;48.658;9.068;2022-11-12T10:04:18;2.63;;;2.43;;
15595;SDS011;7898;48.658;9.068;2022-11-12T10:06:54;2.67;;;2.47;;
15595;SDS011;7898;48.658;9.068;2022-11-12T10:09:29;3.10;;;2.80;;
15595;SDS011;7898;48.658;9.068;2022-11-12T10:12:08;2.83;;;2.57;;
15595;SDS011;7898;48.658;9.068;2022-11-12T10:15:02;2.90;;;2.37;;
15595;SDS011;7898;48.658;9.068;2022-11-12T10:18:12;2.80;;;2.60;;
15595;SDS011;7898;48.658;9.068;2022-11-12T10:20:47;2.70;;;2.50;;
15595;SDS011;7898;48.658;9.068;2022-11-12T10:23:21;3.03;;;2.80;;
15595;SDS011;7898;48.658;9.068;2022-11-12T10:25:54;3.10;;;2.80;;
15595;SDS011;7898;48.658;9.068;2022-11-12T10:28:27;3.60;;;3.30;;
15595;SDS011;7898;48.658;9.068;2022-11-12T10:30:59;4.00;;;3.42;;
15595;SDS011;7898;48.658;9.068;2022-11-12T10:33:32;4.65;;;3.67;;
15595;SDS011;7898;48.658;9.068;2022-11-12T10:36:08;3.72;;;3.38;;
15595;SDS011;7898;48.658;9.068;2022-11-12T10:38:42;3.27;;;2.87;;
15595;SDS011;7898;48.658;9.068;2022-11-12T10:41:17;3.20;;;2.90;;
15595;SDS011;7898;48.658;9.068;2022-11-12T10:43:53;3.00;;;2.70;;
15595;SDS011;7898;48.658;9.068;2022-11-12T10:46:25;4.63;;;3.00;;
15595;SDS011;7898;48.658;9.068;2022-11-12T10:48:54;4.13;;;3.20;;
15595;SDS011;7898;48.658;9.068;2022-11-12T10:51:25;3.00;;;2.67;;
15595;SDS011;7898;48.658;9.068;2022-11-12T10:53:53;3.45;;;3.03;;
15595;SDS011;7898;48.658;9.068;2022-11-12T10:56:22;4.80;;;2.85;;
15595;SDS011;7898;48.658;9.068;2022-11-12T10:59:09;3.20;;;2.83;;
15595;SDS011;7898;48.658;9.068;2022-11-12T11:01:40;5.93;;;2.77;;
15595;SDS011;7898;48.658;9.068;2022-11-12T11:04:14;2.72;;;2.53;;
15595;SDS011;7898;48.658;9.068;2022-11-12T11:06:44;2.92;;;2.70;;
15595;SDS011;7898;48.658;9.068;2022-11-12T11:09:15;3.80;;;2.53;;
15595;SDS011;7898;48.658;9.068;2022-11-12T11:11:48;6.32;;;2.88;;
15595;SDS011;7898;48.658;9.068;2022-11-12T11:14:24;2.80;;;2.60;;
15595;SDS011;7898;48.658;9.068;2022-11-12T11:16:53;2.70;;;2.50;;
15595;SDS011;7898;48.658;9.068;2022-11-12T11:19:23;2.97;;;2.63;;
15595;SDS011;7898;48.658;9.068;2022-11-12T11:22:03;3.85;;;2.45;;
15595;SDS011;7898;48.658;9.068;2022-11-12T11:24:38;2.50;;;2.30;;
15595;SDS011;7898;48.658;9.068;2022-11-12T11:27:20;3.15;;;2.85;;
15595;SDS011;7898;48.658;9.068;2022-11-12T11:30:05;3.15;;;2.83;;
15595;SDS011;7898;48.658;9.068;2022-11-12T11:35:42;3.55;;;2.50;;
15595;SDS011;7898;48.658;9.068;2022-11-12T11:38:25;2.80;;;2.33;;
15595;SDS011;7898;48.658;9.068;2022-11-12T11:41:01;2.55;;;2.30;;
15595;SDS011;7898;48.658;9.068;2022-11-12T11:43:44;2.70;;;2.50;;
15595;SDS011;7898;48.658;9.068;2022-11-12T11:46:26;4.63;;;2.30;;
15595;SDS011;7898;48.658;9.068;2022-11-12T11:49:17;2.40;;;2.20;;
15595;SDS011;7898;48.658;9.068;2022-11-12T11:52:01;2.47;;;2.28;;
15595;SDS011;7898;48.658;9.068;2022-11-12T11:54:43;2.60;;;2.40;;
15595;SDS011;7898;48.658;9.068;2022-11-12T11:57:20;2.10;;;1.70;;
15595;SDS011;7898;48.658;9.068;2022-11-12T11:59:58;2.05;;;1.77;;
15595;SDS011;7898;48.658;9.068;2022-11-12T12:02:52;2.30;;;2.10;;
15595;SDS011;7898;48.658;9.068;2022-11-12T12:05:32;2.95;;;1.65;;
15595;SDS011;7898;48.658;9.068;2022-11-12T12:08:07;2.10;;;1.70;;
15595;SDS011;7898;48.658;9.068;2022-11-12T12:10:42;2.33;;;1.67;;
15595;SDS011;7898;48.658;9.068;2022-11-12T12:13:20;2.30;;;1.80;;
15595;SDS011;7898;48.658;9.068;2022-11-12T12:16:03;3.42;;;1.60;;
15595;SDS011;7898;48.658;9.068;2022-11-12T12:18:50;1.63;;;1.52;;
15595;SDS011;7898;48.658;9.068;2022-11-12T12:21:22;2.00;;;1.75;;
15595;SDS011;7898;48.658;9.068;2022-11-12T12:23:52;3.95;;;2.00;;
15595;SDS011;7898;48.658;9.068;2022-11-12T12:26:24;1.85;;;1.65;;
15595;SDS011;7898;48.658;9.068;2022-11-12T12:28:56;1.92;;;1.63;;
15595;SDS011;7898;48.658;9.068;2022-11-12T12:31:28;1.75;;;1.65;;
15595;SDS011;7898;48.658;9.068;2022-11-12T12:34:03;1.98;;;1.65;;
15595;SDS011;7898;48.658;9.068;2022-11-12T12:36:39;2.65;;;1.80;;
15595;SDS011;7898;48.658;9.068;2022-11-12T12:39:10;2.20;;;2.00;;
15595;SDS011;7898;48.658;9.068;2022-11-12T12:41:42;2.05;;;1.85;;
15595;SDS011;7898;48.658;9.068;2022-11-12T12:44:15;2.05;;;1.65;;
15595;SDS011;7898;48.658;9.068;2022-11-12T12:46:43;2.00;;;1.80;;
15595;SDS011;7898;48.658;9.068;2022-11-12T12:49:14;3.63;;;2.22;;
15595;SDS011;7898;48.658;9.068;2022-11-12T12:51:43;3.67;;;2.38;;
15595;SDS011;7898;48.658;9.068;2022-11-12T12:57:30;3.88;;;2.90;;
15595;SDS011;7898;48.658;9.068;2022-11-12T13:03:07;4.85;;;3.50;;
15595;SDS011;7898;48.658;9.068;2022-11-12T13:05:37;5.75;;;3.40;;
15595;SDS011;7898;48.658;9.068;2022-11-12T13:08:05;3.90;;;3.40;;
15595;SDS011;7898;48.658;9.068;2022-11-12T13:10:45;3.47;;;3.17;;
15595;SDS011;7898;48.658;9.068;2022-11-12T13:13:23;4.32;;;3.50;;
15595;SDS011;7898;48.658;9.068;2022-11-12T13:15:56;4.30;;;3.90;;
15595;SDS011;7898;48.658;9.068;2022-11-12T13:21:27;4.70;;;3.88;;
15595;SDS011;7898;48.658;9.068;2022-11-12T13:23:56;10.05;;;4.18;;
15595;SDS011;7898;48.658;9.068;2022-11-12T13:26:43;5.32;;;4.22;;
15595;SDS011;7898;48.658;9.068;2022-11-12T13:37:57;6.55;;;5.00;;
15595;SDS011;7898;48.658;9.068;2022-11-12T13:40:36;6.57;;;5.50;;
15595;SDS011;7898;48.658;9.068;2022-11-12T13:43:09;7.93;;;5.95;;
15595;SDS011;7898;48.658;9.068;2022-11-12T13:45:52;8.13;;;5.38;;
15595;SDS011;7898;48.658;9.068;2022-11-12T13:48:25;8.03;;;5.50;;
15595;SDS011;7898;48.658;9.068;2022-11-12T13:50:56;7.73;;;5.33;;
15595;SDS011;7898;48.658;9.068;2022-11-12T13:53:29;5.43;;;4.93;;
15595;SDS011;7898;48.658;9.068;2022-11-12T13:55:58;7.30;;;5.22;;
15595;SDS011;7898;48.658;9.068;2022-11-12T13:58:26;8.10;;;6.00;;
15595;SDS011;7898;48.658;9.068;2022-11-12T14:00:54;9.10;;;6.30;;
15595;SDS011;7898;48.658;9.068;2022-11-12T14:03:23;6.60;;;5.60;;
15595;SDS011;7898;48.658;9.068;2022-11-12T14:05:53;7.63;;;6.10;;
15595;SDS011;7898;48.658;9.068;2022-11-12T14:08:29;7.83;;;6.27;;
15595;SDS011;7898;48.658;9.068;2022-11-12T14:11:10;7.32;;;6.32;;
15595;SDS011;7898;48.658;9.068;2022-11-12T14:13:53;7.83;;;6.73;;
15595;SDS011;7898;48.658;9.068;2022-11-12T14:16:31;10.43;;;6.30;;
15595;SDS011;7898;48.658;9.068;2022-11-12T14:19:12;8.67;;;6.00;;
15595;SDS011;7898;48.658;9.068;2022-11-12T14:21:58;8.37;;;5.73;;
15595;SDS011;7898;48.658;9.068;2022-11-12T14:24:27;8.27;;;7.07;;
15595;SDS011;7898;48.658;9.068;2022-11-12T14:26:57;9.37;;;6.33;;
15595;SDS011;7898;48.658;9.068;2022-11-12T14:29:24;7.87;;;6.40;;
15595;SDS011;7898;48.658;9.068;2022-11-12T14:32:00;7.50;;;6.27;;
15595;SDS011;7898;48.658;9.068;2022-11-12T14:34:28;9.93;;;6.83;;
15595;SDS011;7898;48.658;9.068;2022-11-12T14:36:57;7.47;;;5.73;;
15595;SDS011;7898;48.658;9.068;2022-11-12T14:39:25;7.77;;;6.13;;
15595;SDS011;7898;48.658;9.068;2022-11-12T14:41:55;7.90;;;6.30;;
15595;SDS011;7898;48.658;9.068;2022-11-12T14:44:27;10.03;;;6.23;;
15595;SDS011;7898;48.658;9.068;2022-11-12T14:46:58;7.57;;;6.30;;
15595;SDS011;7898;48.658;9.068;2022-11-12T14:49:27;7.27;;;6.47;;
15595;SDS011;7898;48.658;9.068;2022-11-12T14:52:02;8.93;;;6.33;;
15595;SDS011;7898;48.658;9.068;2022-11-12T14:54:35;11.60;;;6.37;;
15595;SDS011;7898;48.658;9.068;2022-11-12T14:57:09;9.93;;;7.33;;
15595;SDS011;7898;48.658;9.068;2022-11-12T14:59:45;8.90;;;6.83;;
15595;SDS011;7898;48.658;9.068;2022-11-12T15:02:13;8.43;;;6.73;;
15595;SDS011;7898;48.658;9.068;2022-11-12T15:04:42;8.23;;;7.00;;
15595;SDS011;7898;48.658;9.068;2022-11-12T15:07:23;9.03;;;7.20;;
15595;SDS011;7898;48.658;9.068;2022-11-12T15:09:52;39.70;;;23.47;;
15595;SDS011;7898;48.658;9.068;2022-11-12T15:12:21;12.40;;;9.00;;
15595;SDS011;7898;48.658;9.068;2022-11-12T15:14:50;12.60;;;9.60;;
15595;SDS011;7898;48.658;9.068;2022-11-12T15:17:26;10.33;;;8.60;;
15595;SDS011;7898;48.658;9.068;2022-11-12T15:19:59;7.77;;;6.70;;
15595;SDS011;7898;48.658;9.068;2022-11-12T15:22:28;18.10;;;13.37;;
15595;SDS011;7898;48.658;9.068;2022-11-12T15:25:01;16.20;;;11.23;;
15595;SDS011;7898;48.658;9.068;2022-11-12T15:27:39;8.43;;;7.13;;
15595;SDS011;7898;48.658;9.068;2022-11-12T15:30:13;10.33;;;7.70;;
15595;SDS011;7898;48.658;9.068;2022-11-12T15:32:42;8.37;;;7.13;;
15595;SDS011;7898;48.658;9.068;2022-11-12T15:38:02;28.47;;;20.20;;
15595;SDS011;7898;48.658;9.068;2022-11-12T15:40:40;16.07;;;12.10;;